createdAt,value
2023-03-21T00:00:59.657Z,7.20
2023-03-21T00:03:31.087Z,7.10
2023-03-21T00:06:05.927Z,7.70
2023-03-21T00:08:36.596Z,7.00
2023-03-21T00:11:09.860Z,6.50
2023-03-21T00:13:42.442Z,6.70
2023-03-21T00:18:57.313Z,6.60
2023-03-21T00:22:03.714Z,7.50
2023-03-21T00:24:23.351Z,8.90
2023-03-21T00:26:54.086Z,7.50
2023-03-21T00:29:25.816Z,7.00
2023-03-21T00:31:56.517Z,8.40
2023-03-21T00:34:36.990Z,7.60
2023-03-21T00:37:16.797Z,8.70
2023-03-21T00:39:49.338Z,7.90
2023-03-21T00:44:49.571Z,7.30
2023-03-21T00:47:20.281Z,8.80
2023-03-21T00:49:51.023Z,9.20
2023-03-21T00:52:38.059Z,9.80
2023-03-21T00:55:14.878Z,9.40
2023-03-21T00:57:50.085Z,9.80
2023-03-21T01:00:28.718Z,10.40
2023-03-21T01:03:17.505Z,9.20
2023-03-21T01:06:05.984Z,9.00
2023-03-21T01:08:54.784Z,9.40
2023-03-21T01:11:28.758Z,9.70
2023-03-21T01:14:11.202Z,10.20
2023-03-21T01:16:46.052Z,9.60
2023-03-21T01:19:25.519Z,9.90
2023-03-21T01:21:59.041Z,10.30
2023-03-21T01:24:31.249Z,10.20
2023-03-21T01:27:04.662Z,10.20
2023-03-21T01:29:35.477Z,10.40
2023-03-21T01:32:07.099Z,10.60
2023-03-21T01:34:37.806Z,10.60
2023-03-21T01:37:08.864Z,10.60
2023-03-21T01:39:46.466Z,11.30
2023-03-21T01:42:17.377Z,10.20
2023-03-21T01:45:01.055Z,10.90
2023-03-21T01:47:52.201Z,11.30
2023-03-21T01:50:29.281Z,10.70
2023-03-21T01:53:17.389Z,10.20
2023-03-21T01:55:49.756Z,12.00
2023-03-21T01:58:59.984Z,10.90
2023-03-21T02:01:50.138Z,13.20
2023-03-21T02:04:28.206Z,10.90
2023-03-21T02:07:29.828Z,11.00
2023-03-21T02:10:09.911Z,10.20
2023-03-21T02:12:42.029Z,11.90
2023-03-21T02:15:16.095Z,11.50
2023-03-21T02:18:10.422Z,11.20
2023-03-21T02:21:25.218Z,11.30
2023-03-21T02:24:17.514Z,10.80
2023-03-21T02:27:04.114Z,11.50
2023-03-21T02:30:00.228Z,11.80
2023-03-21T02:32:49.856Z,10.90
2023-03-21T02:35:39.081Z,11.20
2023-03-21T02:38:19.418Z,11.30
2023-03-21T02:41:01.756Z,10.90
2023-03-21T02:43:40.471Z,11.00
2023-03-21T02:46:16.179Z,10.10
2023-03-21T02:48:53.418Z,10.00
2023-03-21T02:51:27.142Z,10.20
2023-03-21T02:54:27.843Z,9.40
2023-03-21T02:56:57.058Z,10.60
2023-03-21T02:59:30.177Z,10.40
2023-03-21T03:02:04.237Z,11.20
2023-03-21T03:04:35.039Z,10.10
2023-03-21T03:07:27.487Z,10.90
2023-03-21T03:10:11.921Z,11.30
2023-03-21T03:12:51.518Z,12.70
2023-03-21T03:15:33.439Z,11.30
2023-03-21T03:18:14.356Z,10.90
2023-03-21T03:20:57.001Z,11.40
2023-03-21T03:23:35.493Z,11.90
2023-03-21T03:28:42.294Z,10.80
2023-03-21T03:31:26.139Z,10.90
2023-03-21T03:34:07.129Z,11.00
2023-03-21T03:36:47.720Z,11.30
2023-03-21T03:42:18.522Z,11.30
2023-03-21T03:44:53.910Z,13.80
2023-03-21T03:47:35.003Z,11.10
2023-03-21T03:50:15.428Z,10.40
2023-03-21T03:52:57.128Z,12.20
2023-03-21T03:58:21.566Z,11.30
2023-03-21T04:00:55.909Z,12.00
2023-03-21T04:03:28.197Z,13.00
2023-03-21T04:05:59.394Z,12.90
2023-03-21T04:08:30.358Z,12.40
2023-03-21T04:11:02.681Z,10.90
2023-03-21T04:13:51.853Z,12.80
2023-03-21T04:16:26.000Z,10.20
2023-03-21T04:18:57.140Z,12.30
2023-03-21T04:21:29.089Z,12.90
2023-03-21T04:23:59.900Z,11.40
2023-03-21T04:26:33.459Z,13.40
2023-03-21T04:29:24.350Z,11.20
2023-03-21T04:32:19.928Z,13.30
2023-03-21T04:34:57.023Z,12.20
2023-03-21T04:37:28.479Z,11.50
2023-03-21T04:39:59.647Z,11.20
2023-03-21T04:42:30.553Z,12.50
2023-03-21T04:45:01.287Z,11.30
2023-03-21T04:47:32.278Z,12.80
2023-03-21T04:50:04.531Z,12.30
2023-03-21T04:52:50.965Z,13.40
2023-03-21T04:55:26.651Z,11.30
2023-03-21T04:57:57.932Z,14.30
2023-03-21T05:00:29.104Z,13.70
2023-03-21T05:03:00.148Z,14.40
2023-03-21T05:05:31.852Z,13.10
2023-03-21T05:08:02.455Z,13.60
2023-03-21T05:10:33.166Z,11.70
2023-03-21T05:13:03.903Z,12.10
2023-03-21T05:15:37.039Z,13.50
2023-03-21T05:18:11.902Z,12.50
2023-03-21T05:20:54.492Z,12.70
2023-03-21T05:23:26.138Z,13.50
2023-03-21T05:25:56.921Z,12.90
2023-03-21T05:28:42.207Z,12.90
2023-03-21T05:31:15.858Z,13.60
2023-03-21T05:33:47.784Z,12.30
2023-03-21T05:36:20.925Z,11.90
2023-03-21T05:38:51.695Z,13.10
2023-03-21T05:41:22.852Z,11.90
2023-03-21T05:43:53.875Z,12.90
2023-03-21T05:46:25.681Z,11.50
2023-03-21T05:48:56.807Z,11.70
2023-03-21T05:51:29.097Z,12.10
2023-03-21T05:54:00.165Z,11.40
2023-03-21T05:56:31.073Z,10.60
2023-03-21T05:59:07.386Z,10.90
2023-03-21T06:01:42.561Z,10.20
2023-03-21T06:04:15.962Z,11.00
2023-03-21T06:06:47.391Z,8.30
2023-03-21T06:09:18.410Z,7.70
2023-03-21T06:11:57.185Z,8.10
2023-03-21T06:14:34.761Z,6.70
2023-03-21T06:17:27.321Z,7.40
2023-03-21T06:20:02.209Z,8.00
2023-03-21T06:22:36.773Z,7.40
2023-03-21T06:25:09.822Z,6.40
2023-03-21T06:27:40.457Z,6.80
2023-03-21T06:30:13.447Z,6.90
2023-03-21T06:32:50.775Z,5.70
2023-03-21T06:35:22.459Z,7.00
2023-03-21T06:37:53.541Z,5.90
2023-03-21T06:40:24.929Z,5.30
2023-03-21T06:42:55.928Z,5.40
2023-03-21T06:45:27.202Z,4.90
2023-03-21T06:47:57.875Z,5.80
2023-03-21T06:50:45.446Z,4.40
2023-03-21T06:53:16.099Z,5.00
2023-03-21T06:56:06.073Z,5.00
2023-03-21T06:58:37.427Z,4.30
2023-03-21T07:01:09.539Z,5.20
2023-03-21T07:03:47.335Z,3.80
2023-03-21T07:06:18.331Z,4.50
2023-03-21T07:08:49.074Z,4.90
2023-03-21T07:11:20.097Z,4.30
2023-03-21T07:13:51.646Z,3.90
2023-03-21T07:16:24.888Z,4.10
2023-03-21T07:18:56.158Z,5.20
2023-03-21T07:21:27.020Z,4.90
2023-03-21T07:23:59.190Z,4.10
2023-03-21T07:26:29.954Z,4.10
2023-03-21T07:29:01.899Z,3.90
2023-03-21T07:31:32.946Z,4.90
2023-03-21T07:34:03.761Z,4.60
2023-03-21T07:36:34.868Z,4.80
2023-03-21T07:39:06.411Z,5.00
2023-03-21T07:41:37.133Z,4.80
2023-03-21T07:44:16.912Z,5.10
2023-03-21T07:46:47.596Z,4.30
2023-03-21T07:49:19.714Z,4.80
2023-03-21T07:51:50.539Z,5.40
2023-03-21T07:54:23.053Z,3.40
2023-03-21T07:56:53.731Z,4.00
2023-03-21T07:59:24.410Z,4.90
2023-03-21T08:01:55.292Z,3.70
2023-03-21T08:04:26.142Z,4.10
2023-03-21T08:06:57.503Z,4.90
2023-03-21T08:09:30.139Z,4.20
2023-03-21T08:12:01.959Z,5.20
2023-03-21T08:14:33.263Z,5.10
2023-03-21T08:17:04.147Z,5.40
2023-03-21T08:19:34.903Z,4.90
2023-03-21T08:22:06.753Z,5.40
2023-03-21T08:24:37.426Z,5.00
2023-03-21T08:27:08.174Z,4.50
2023-03-21T08:29:42.314Z,5.10
2023-03-21T08:32:12.996Z,5.00
2023-03-21T08:34:43.839Z,4.60
2023-03-21T08:37:14.662Z,4.50
2023-03-21T08:39:45.653Z,4.90
2023-03-21T08:42:16.550Z,5.10
2023-03-21T08:44:47.334Z,4.90
2023-03-21T08:47:19.245Z,4.60
2023-03-21T08:49:50.276Z,4.60
2023-03-21T08:52:20.928Z,4.50
2023-03-21T08:54:51.878Z,3.90
2023-03-21T08:57:22.823Z,4.60
2023-03-21T08:59:53.581Z,4.70
2023-03-21T09:02:24.260Z,4.10
2023-03-21T09:04:59.066Z,4.30
2023-03-21T09:07:33.513Z,5.20
2023-03-21T09:10:21.867Z,3.70
2023-03-21T09:12:54.907Z,2.90
2023-03-21T09:15:28.787Z,3.60
2023-03-21T09:18:13.321Z,3.40
2023-03-21T09:23:14.884Z,3.70
2023-03-21T09:25:47.477Z,3.70
2023-03-21T09:30:47.579Z,3.00
2023-03-21T09:33:25.764Z,3.20
2023-03-21T09:35:57.753Z,3.10
2023-03-21T09:38:30.637Z,3.00
2023-03-21T09:41:12.588Z,3.30
2023-03-21T09:43:56.177Z,3.30
2023-03-21T09:46:34.721Z,2.90
2023-03-21T09:51:42.936Z,3.30
2023-03-21T09:54:19.503Z,3.70
2023-03-21T09:56:54.656Z,3.50
2023-03-21T09:59:33.616Z,3.30
2023-03-21T10:02:05.650Z,3.50
2023-03-21T10:04:37.860Z,2.90
2023-03-21T10:07:16.184Z,3.30
2023-03-21T10:09:48.519Z,4.40
2023-03-21T10:12:24.757Z,4.10
2023-03-21T10:14:59.466Z,3.50
2023-03-21T10:17:34.307Z,3.80
2023-03-21T10:20:15.964Z,3.70
2023-03-21T10:22:49.592Z,3.70
2023-03-21T10:25:23.203Z,4.30
2023-03-21T10:27:54.308Z,3.70
2023-03-21T10:30:38.186Z,4.50
2023-03-21T10:33:12.744Z,4.10
2023-03-21T10:35:47.509Z,3.50
2023-03-21T10:38:20.827Z,3.50
2023-03-21T10:40:51.655Z,3.40
2023-03-21T10:43:35.256Z,3.40
2023-03-21T10:46:13.364Z,3.00
2023-03-21T10:48:47.066Z,3.70
2023-03-21T10:51:23.129Z,2.90
2023-03-21T10:53:57.418Z,3.00
2023-03-21T10:56:30.544Z,3.10
2023-03-21T10:59:02.700Z,2.80
2023-03-21T11:01:38.858Z,2.00
2023-03-21T11:04:17.326Z,2.40
2023-03-21T11:06:53.371Z,2.50
2023-03-21T11:09:26.069Z,2.50
2023-03-21T11:12:03.337Z,2.60
2023-03-21T11:14:40.585Z,2.60
2023-03-21T11:17:25.956Z,2.50
2023-03-21T11:19:59.072Z,2.30
2023-03-21T11:22:38.459Z,2.50
2023-03-21T11:25:12.363Z,2.50
2023-03-21T11:27:51.013Z,2.10
2023-03-21T11:30:25.869Z,2.10
2023-03-21T11:32:58.714Z,2.30
2023-03-21T11:35:34.945Z,2.60
2023-03-21T11:38:07.090Z,2.10
2023-03-21T11:40:53.113Z,2.40
2023-03-21T11:43:32.994Z,2.20
2023-03-21T11:46:09.480Z,2.10
2023-03-21T11:48:43.197Z,2.50
2023-03-21T11:51:26.827Z,2.30
2023-03-21T11:54:06.899Z,2.30
2023-03-21T11:56:43.679Z,2.00
2023-03-21T11:59:43.269Z,2.10
2023-03-21T12:02:38.167Z,1.80
2023-03-21T12:05:19.262Z,1.90
2023-03-21T12:07:58.880Z,1.80
2023-03-21T12:10:40.053Z,2.00
2023-03-21T12:13:29.338Z,2.20
2023-03-21T12:16:12.218Z,2.00
2023-03-21T12:19:10.372Z,2.10
2023-03-21T12:21:50.912Z,1.90
2023-03-21T12:24:25.934Z,1.90
2023-03-21T12:27:06.325Z,2.00
2023-03-21T12:29:48.452Z,1.80
2023-03-21T12:32:35.576Z,2.10
2023-03-21T12:35:17.650Z,2.10
2023-03-21T12:37:57.776Z,2.30
2023-03-21T12:40:45.852Z,2.40
2023-03-21T12:43:28.235Z,2.20
2023-03-21T12:46:04.923Z,1.80
2023-03-21T12:48:44.613Z,2.20
2023-03-21T12:51:18.601Z,1.90
2023-03-21T12:53:57.368Z,2.00
2023-03-21T12:56:32.706Z,2.00
2023-03-21T12:59:09.652Z,1.90
2023-03-21T13:01:43.012Z,1.80
2023-03-21T13:04:32.929Z,1.90
2023-03-21T13:07:08.877Z,1.80
2023-03-21T13:09:41.292Z,1.40
2023-03-21T13:14:57.762Z,1.20
2023-03-21T13:17:36.441Z,1.60
2023-03-21T13:20:19.245Z,1.60
2023-03-21T13:22:50.332Z,1.60
2023-03-21T13:25:23.142Z,1.70
2023-03-21T13:28:02.041Z,1.80
2023-03-21T13:30:34.327Z,1.50
2023-03-21T13:33:13.060Z,1.50
2023-03-21T13:35:45.412Z,1.40
2023-03-21T13:40:52.503Z,1.30
2023-03-21T13:43:41.372Z,2.00
2023-03-21T13:46:14.332Z,2.10
2023-03-21T13:49:00.337Z,1.60
2023-03-21T13:51:52.208Z,2.60
2023-03-21T13:54:51.008Z,1.40
2023-03-21T13:57:39.725Z,1.30
2023-03-21T14:00:29.496Z,1.10
2023-03-21T14:03:06.898Z,1.50
2023-03-21T14:05:38.826Z,2.40
2023-03-21T14:08:21.577Z,1.40
2023-03-21T14:10:59.901Z,1.40
2023-03-21T14:13:37.980Z,1.20
2023-03-21T14:16:15.845Z,1.50
2023-03-21T14:18:54.613Z,1.60
2023-03-21T14:21:29.824Z,1.20
2023-03-21T14:24:03.261Z,1.60
2023-03-21T14:26:36.461Z,1.50
2023-03-21T14:29:24.754Z,0.90
2023-03-21T14:32:00.166Z,1.30
2023-03-21T14:34:33.246Z,1.30
2023-03-21T14:37:07.832Z,1.30
2023-03-21T14:39:38.501Z,1.50
2023-03-21T14:42:13.652Z,1.00
2023-03-21T14:44:56.922Z,1.60
2023-03-21T14:47:29.800Z,0.90
2023-03-21T14:50:01.851Z,1.50
2023-03-21T14:52:34.844Z,1.40
2023-03-21T14:55:14.886Z,1.10
2023-03-21T14:57:45.890Z,1.00
2023-03-21T15:00:23.970Z,1.10
2023-03-21T15:02:56.084Z,0.90
2023-03-21T15:05:31.792Z,1.30
2023-03-21T15:08:04.761Z,1.50
2023-03-21T15:10:35.413Z,1.60
2023-03-21T15:13:17.557Z,1.20
2023-03-21T15:15:49.544Z,1.50
2023-03-21T15:18:26.979Z,1.40
2023-03-21T15:20:59.725Z,1.20
2023-03-21T15:23:35.829Z,1.50
2023-03-21T15:26:07.905Z,1.40
2023-03-21T15:28:38.819Z,1.30
2023-03-21T15:31:21.416Z,1.40
2023-03-21T15:33:53.903Z,1.50
2023-03-21T15:39:05.785Z,1.60
2023-03-21T15:41:36.467Z,1.50
2023-03-21T15:44:17.671Z,1.20
2023-03-21T15:46:52.427Z,1.50
2023-03-21T15:49:28.493Z,2.10
2023-03-21T15:52:02.522Z,1.50
2023-03-21T15:54:37.091Z,1.30
2023-03-21T15:57:20.279Z,1.30
2023-03-21T15:59:51.869Z,1.40
2023-03-21T16:02:26.214Z,1.20
2023-03-21T16:05:03.868Z,1.50
2023-03-21T16:07:37.213Z,1.30
2023-03-21T16:10:24.458Z,1.60
2023-03-21T16:12:55.427Z,1.40
2023-03-21T16:15:27.108Z,1.50
2023-03-21T16:17:59.885Z,1.30
2023-03-21T16:20:34.182Z,1.30
2023-03-21T16:23:04.946Z,1.70
2023-03-21T16:25:36.083Z,1.40
2023-03-21T16:28:11.564Z,1.50
2023-03-21T16:30:42.313Z,1.20
2023-03-21T16:33:14.865Z,1.70
2023-03-21T16:35:45.759Z,2.20
2023-03-21T16:38:16.913Z,2.10
2023-03-21T16:40:47.718Z,1.70
2023-03-21T16:43:18.644Z,1.50
2023-03-21T16:45:49.427Z,1.90
2023-03-21T16:48:20.115Z,2.80
2023-03-21T16:50:51.157Z,3.40
2023-03-21T16:53:21.959Z,3.20
2023-03-21T16:55:54.084Z,3.10
2023-03-21T16:58:24.787Z,3.20
2023-03-21T17:00:55.508Z,3.30
2023-03-21T17:03:26.385Z,3.80
2023-03-21T17:05:56.973Z,4.80
2023-03-21T17:08:29.180Z,4.70
2023-03-21T17:11:00.278Z,4.00
2023-03-21T17:13:31.189Z,2.80
2023-03-21T17:16:01.897Z,1.40
2023-03-21T17:18:32.535Z,1.30
2023-03-21T17:21:03.265Z,1.50
2023-03-21T17:23:33.890Z,1.70
2023-03-21T17:26:04.534Z,1.50
2023-03-21T17:28:35.247Z,1.10
2023-03-21T17:31:08.026Z,1.60
2023-03-21T17:33:38.620Z,1.50
2023-03-21T17:36:15.946Z,1.60
2023-03-21T17:38:47.336Z,1.60
2023-03-21T17:41:19.942Z,1.70
2023-03-21T17:43:51.679Z,1.50
2023-03-21T17:46:23.830Z,1.80
2023-03-21T17:48:54.856Z,1.50
2023-03-21T17:51:30.139Z,1.60
2023-03-21T17:54:01.052Z,1.50
2023-03-21T17:56:33.718Z,1.80
2023-03-21T18:01:35.403Z,1.50
2023-03-21T18:04:07.654Z,1.30
2023-03-21T18:06:38.334Z,1.50
2023-03-21T18:09:11.675Z,1.40
2023-03-21T18:11:42.792Z,1.60
2023-03-21T18:14:18.234Z,1.70
2023-03-21T18:16:54.193Z,2.10
2023-03-21T18:19:25.154Z,2.70
2023-03-21T18:21:56.207Z,2.20
2023-03-21T18:24:27.303Z,2.60
2023-03-21T18:26:58.177Z,2.30
2023-03-21T18:30:22.873Z,2.00
2023-03-21T18:32:21.604Z,2.30
2023-03-21T18:34:52.291Z,1.80
2023-03-21T18:37:23.189Z,2.20
2023-03-21T18:39:54.800Z,2.10
2023-03-21T18:42:26.659Z,2.30
2023-03-21T18:45:01.109Z,1.70
2023-03-21T18:47:32.062Z,1.40
2023-03-21T18:50:14.232Z,1.50
2023-03-21T18:52:46.526Z,2.40
2023-03-21T18:55:18.629Z,2.10
2023-03-21T18:57:50.661Z,2.30
2023-03-21T19:00:23.830Z,2.30
2023-03-21T19:03:13.905Z,2.40
2023-03-21T19:05:48.162Z,2.00
2023-03-21T19:08:19.045Z,2.10
2023-03-21T19:10:51.247Z,1.90
2023-03-21T19:13:22.416Z,1.70
2023-03-21T19:15:54.144Z,2.10
2023-03-21T19:18:46.042Z,2.30
2023-03-21T19:21:16.986Z,2.50
2023-03-21T19:26:39.873Z,2.30
2023-03-21T19:29:10.946Z,2.40
2023-03-21T19:31:42.216Z,1.90
2023-03-21T19:34:15.015Z,2.30
2023-03-21T19:36:51.680Z,3.20
2023-03-21T19:39:24.239Z,4.90
2023-03-21T19:42:14.790Z,3.00
2023-03-21T19:44:47.104Z,3.50
2023-03-21T19:47:20.814Z,3.10
2023-03-21T19:52:46.221Z,5.50
2023-03-21T19:55:17.855Z,5.60
2023-03-21T19:57:49.432Z,4.80
2023-03-21T20:00:33.916Z,4.80
2023-03-21T20:03:23.426Z,3.80
2023-03-21T20:06:06.466Z,4.40
2023-03-21T20:09:27.590Z,4.40
2023-03-21T20:11:43.527Z,5.30
2023-03-21T20:14:16.475Z,5.00
2023-03-21T20:16:48.057Z,5.80
2023-03-21T20:19:20.274Z,7.30
2023-03-21T20:21:59.388Z,5.70
2023-03-21T20:24:33.718Z,7.20
2023-03-21T20:27:05.250Z,5.80
2023-03-21T20:30:10.918Z,6.10
2023-03-21T20:32:31.892Z,5.00
2023-03-21T20:35:17.361Z,5.60
2023-03-21T20:37:53.495Z,4.50
2023-03-21T20:40:24.696Z,4.80
2023-03-21T20:42:56.553Z,5.10
2023-03-21T20:45:28.263Z,5.20
2023-03-21T20:47:59.925Z,5.10
2023-03-21T20:50:39.087Z,5.70
2023-03-21T20:53:10.943Z,4.80
2023-03-21T20:55:41.980Z,4.40
2023-03-21T20:58:50.085Z,4.30
2023-03-21T21:01:16.794Z,4.90
2023-03-21T21:03:50.432Z,4.20
2023-03-21T21:06:23.081Z,4.90
2023-03-21T21:08:55.637Z,4.70
2023-03-21T21:14:16.552Z,4.60
2023-03-21T21:16:48.119Z,4.80
2023-03-21T21:19:21.716Z,5.10
2023-03-21T21:21:52.951Z,5.60
2023-03-21T21:24:23.965Z,4.10
2023-03-21T21:26:54.835Z,6.10
2023-03-21T21:29:25.580Z,4.10
2023-03-21T21:31:56.307Z,4.80
2023-03-21T21:34:27.328Z,4.60
2023-03-21T21:36:58.029Z,4.60
2023-03-21T21:39:31.466Z,5.30
2023-03-21T21:42:03.023Z,4.10
2023-03-21T21:44:33.805Z,5.90
2023-03-21T21:47:08.684Z,5.30
2023-03-21T21:49:39.482Z,5.40
2023-03-21T21:52:13.434Z,4.00
2023-03-21T21:54:45.775Z,4.60
2023-03-21T21:57:18.965Z,4.90
2023-03-21T21:59:53.881Z,4.90
2023-03-21T22:02:25.505Z,5.30
2023-03-21T22:04:58.446Z,4.20
2023-03-21T22:07:29.758Z,4.50
2023-03-21T22:10:00.558Z,4.80
2023-03-21T22:12:31.440Z,4.70
2023-03-21T22:15:02.144Z,4.50
2023-03-21T22:17:32.924Z,4.50
2023-03-21T22:20:06.814Z,4.80
2023-03-21T22:22:38.322Z,4.20
2023-03-21T22:25:11.806Z,4.40
2023-03-21T22:27:43.027Z,5.10
2023-03-21T22:30:17.345Z,4.10
2023-03-21T22:33:02.475Z,4.60
2023-03-21T22:35:37.363Z,4.80
2023-03-21T22:38:08.125Z,4.50
2023-03-21T22:40:39.263Z,4.20
2023-03-21T22:43:10.130Z,4.80
2023-03-21T22:45:41.851Z,4.50
2023-03-21T22:48:12.615Z,4.60
2023-03-21T22:50:43.610Z,4.30
2023-03-21T22:53:14.263Z,4.10
2023-03-21T22:55:44.982Z,4.70
2023-03-21T22:58:15.663Z,4.50
2023-03-21T23:00:47.197Z,4.50
2023-03-21T23:03:18.126Z,5.00
2023-03-21T23:05:48.786Z,4.50
2023-03-21T23:08:19.926Z,4.40
2023-03-21T23:10:50.735Z,3.90
2023-03-21T23:13:23.595Z,4.50
2023-03-21T23:15:54.304Z,4.70
2023-03-21T23:18:24.933Z,4.60
2023-03-21T23:20:58.325Z,4.50
2023-03-21T23:23:29.549Z,5.00
2023-03-21T23:26:00.515Z,5.20
2023-03-21T23:28:31.359Z,4.50
2023-03-21T23:31:07.171Z,4.30
2023-03-21T23:33:37.928Z,3.70
2023-03-21T23:36:11.685Z,4.10
2023-03-21T23:38:43.051Z,4.20
2023-03-21T23:41:16.313Z,4.40
2023-03-21T23:43:47.804Z,4.20
2023-03-21T23:46:20.046Z,4.30
2023-03-21T23:48:51.041Z,3.90
2023-03-21T23:51:21.719Z,4.30
2023-03-21T23:53:53.334Z,4.30
2023-03-21T23:56:26.929Z,4.70
2023-03-21T23:58:59.976Z,4.50
